Terminal Aerodrome Forecast
Issued by NWS

Home | Current Version | Previous Version | Text Only | Print | Product List | Glossary On
Versions: 1 2 3 4 5 6 7 8 9 10 11 12 13 14 15 16
026
FTUS44 KLZK 222021 AAB
TAFPBF
TAF AMD
KPBF 222021Z 2220/2318 22004KT P6SM VCTS SCT045CB BKN080
     FM230000 27008KT P6SM BKN050
     FM230500 34008KT P6SM VCSH SCT050 OVC100
     FM231200 01004KT P6SM BKN025=

USA.gov is the U.S. government's official web portal to all federal, state and local government web resources and services.